Time;durP1;ratioP1;P1;durP2;ratioP2;P2;SDS_P1;SDS_P2;PMS_P1;PMS_P2;Temp;Humidity;BMP_temperature;BMP_pressure;BME280_temperature;BME280_humidity;BME280_pressure;Samples;Min_cycle;Max_cycle;Signal;HPM_P1;HPM_P2
2021/07/20 00:02:11;;;;;;;5.87;2.30;;;;;;;;;;5079001;28;20802;-72
2021/07/20 00:04:40;;;;;;;4.93;2.73;;;;;;;;;;5079107;28;20445;-71
2021/07/20 00:07:08;;;;;;;8.53;2.40;;;;;;;;;;5079233;28;20459;-71
2021/07/20 00:09:36;;;;;;;8.70;2.50;;;;;;;;;;5078950;28;20484;-71
2021/07/20 00:12:04;;;;;;;11.10;3.07;;;;;;;;;;5078984;28;20905;-71
2021/07/20 00:14:32;;;;;;;7.43;2.60;;;;;;;;;;5078887;28;20453;-71
2021/07/20 00:17:04;;;;;;;8.43;3.83;;;;;;;;;;5078726;28;20837;-72
2021/07/20 00:19:32;;;;;;;6.00;2.13;;;;;;;;;;5078417;28;20443;-71
2021/07/20 00:21:59;;;;;;;5.20;2.20;;;;;;;;;;5078605;28;20453;-71
2021/07/20 00:24:27;;;;;;;19.53;4.97;;;;;;;;;;5078498;28;20464;-71
2021/07/20 00:26:55;;;;;;;7.97;2.40;;;;;;;;;;5078383;28;20449;-71
2021/07/20 00:29:23;;;;;;;12.23;3.10;;;;;;;;;;5078626;28;20492;-72
2021/07/20 00:31:50;;;;;;;9.27;2.60;;;;;;;;;;5078357;28;20510;-71
2021/07/20 00:34:20;;;;;;;8.30;2.40;;;;;;;;;;5078464;28;20449;-71
2021/07/20 00:36:48;;;;;;;6.57;2.83;;;;;;;;;;5077877;28;20543;-71
2021/07/20 00:39:15;;;;;;;6.33;2.70;;;;;;;;;;5078355;28;20503;-71
2021/07/20 00:41:43;;;;;;;6.60;2.83;;;;;;;;;;5078216;28;20517;-71
2021/07/20 00:44:11;;;;;;;8.40;3.07;;;;;;;;;;5078389;28;20464;-71
2021/07/20 00:46:39;;;;;;;6.67;2.33;;;;;;;;;;5078072;28;20453;-71
2021/07/20 00:49:07;;;;;;;5.47;2.93;;;;;;;;;;5077665;28;20492;-71
2021/07/20 00:51:36;;;;;;;7.77;2.93;;;;;;;;;;5078595;28;20457;-71
2021/07/20 00:54:04;;;;;;;6.90;3.17;;;;;;;;;;5078355;28;20468;-71
2021/07/20 00:56:33;;;;;;;5.30;2.40;;;;;;;;;;5077551;28;20463;-71
2021/07/20 00:59:03;;;;;;;6.93;3.20;;;;;;;;;;5078168;28;20861;-71
2021/07/20 01:01:31;;;;;;;8.93;3.07;;;;;;;;;;5077432;28;20449;-71
2021/07/20 01:03:59;;;;;;;8.73;4.13;;;;;;;;;;5076890;28;20514;-71
2021/07/20 01:06:27;;;;;;;6.87;3.17;;;;;;;;;;5077545;28;20477;-72
2021/07/20 01:08:56;;;;;;;7.97;3.73;;;;;;;;;;5077200;28;20873;-71
2021/07/20 01:11:28;;;;;;;7.53;2.83;;;;;;;;;;5078036;28;20457;-71
2021/07/20 01:13:57;;;;;;;9.70;3.20;;;;;;;;;;5077136;28;20452;-71
2021/07/20 01:16:25;;;;;;;6.33;2.47;;;;;;;;;;5077474;28;20461;-71
2021/07/20 01:18:53;;;;;;;9.43;2.93;;;;;;;;;;5077309;28;20478;-71
2021/07/20 01:21:21;;;;;;;6.93;3.50;;;;;;;;;;5077594;28;20460;-71
2021/07/20 01:23:52;;;;;;;7.80;3.03;;;;;;;;;;5077644;28;20525;-71
2021/07/20 01:26:20;;;;;;;9.90;2.70;;;;;;;;;;5077085;28;20804;-71
2021/07/20 01:28:48;;;;;;;11.17;3.27;;;;;;;;;;5076442;28;20457;-72
2021/07/20 01:31:18;;;;;;;7.50;3.10;;;;;;;;;;5077283;28;20484;-71
2021/07/20 01:33:48;;;;;;;6.70;3.20;;;;;;;;;;5077428;28;20860;-71
2021/07/20 01:36:16;;;;;;;10.60;3.20;;;;;;;;;;5077280;28;20448;-71
2021/07/20 01:38:44;;;;;;;8.70;3.00;;;;;;;;;;5076982;28;20453;-72
2021/07/20 01:41:16;;;;;;;5.50;2.83;;;;;;;;;;5077211;28;20877;-71
2021/07/20 01:43:48;;;;;;;6.03;2.90;;;;;;;;;;5077127;28;20453;-71
2021/07/20 01:46:16;;;;;;;7.80;3.13;;;;;;;;;;5076646;28;20456;-71
2021/07/20 01:48:46;;;;;;;6.10;3.60;;;;;;;;;;5077187;28;20792;-71
2021/07/20 01:51:14;;;;;;;6.83;2.77;;;;;;;;;;5076831;28;20488;-71
2021/07/20 01:53:44;;;;;;;7.97;3.70;;;;;;;;;;5077281;28;20745;-71
2021/07/20 01:56:15;;;;;;;6.00;3.10;;;;;;;;;;5077228;28;20452;-71
2021/07/20 01:58:44;;;;;;;8.07;4.27;;;;;;;;;;5076600;28;20456;-71
2021/07/20 02:01:13;;;;;;;5.63;2.77;;;;;;;;;;5077090;28;20811;-71
2021/07/20 02:04:11;;;;;;;8.63;3.30;;;;;;;;;;5076847;28;20566;-71
2021/07/20 02:09:27;;;;;;;8.30;3.07;;;;;;;;;;5076198;28;20569;-71
2021/07/20 02:11:57;;;;;;;6.43;2.50;;;;;;;;;;5076968;28;20853;-71
2021/07/20 02:14:30;;;;;;;8.33;3.20;;;;;;;;;;5075621;28;20781;-71
2021/07/20 02:17:02;;;;;;;8.77;3.23;;;;;;;;;;5076719;28;20523;-71
2021/07/20 02:19:34;;;;;;;10.03;3.20;;;;;;;;;;5076712;28;20860;-71
2021/07/20 02:22:03;;;;;;;8.47;3.00;;;;;;;;;;5076225;28;20452;-71
2021/07/20 02:24:31;;;;;;;5.47;2.80;;;;;;;;;;5076146;28;20755;-71
2021/07/20 02:27:02;;;;;;;10.20;3.40;;;;;;;;;;5075880;28;20440;-71
2021/07/20 02:29:31;;;;;;;5.10;3.07;;;;;;;;;;5076319;28;20558;-71
2021/07/20 02:31:59;;;;;;;10.87;3.50;;;;;;;;;;5076336;28;20448;-71
2021/07/20 02:34:29;;;;;;;6.77;3.47;;;;;;;;;;5076286;28;20464;-76
2021/07/20 02:36:57;;;;;;;7.80;3.70;;;;;;;;;;5076083;28;20452;-71
2021/07/20 02:39:25;;;;;;;5.40;2.77;;;;;;;;;;5075926;28;20456;-71
2021/07/20 02:41:55;;;;;;;6.03;3.00;;;;;;;;;;5076043;28;20448;-71
2021/07/20 02:44:24;;;;;;;8.10;3.60;;;;;;;;;;5076216;28;20529;-71
2021/07/20 02:46:52;;;;;;;8.10;3.43;;;;;;;;;;5076081;28;20449;-71
2021/07/20 02:49:20;;;;;;;7.43;3.53;;;;;;;;;;5075995;28;20468;-71
2021/07/20 02:51:49;;;;;;;6.50;3.40;;;;;;;;;;5076014;28;20452;-71
2021/07/20 02:54:20;;;;;;;7.13;4.20;;;;;;;;;;5075825;28;20464;-71
2021/07/20 02:56:48;;;;;;;5.90;3.50;;;;;;;;;;5075985;28;20456;-71
2021/07/20 02:59:17;;;;;;;9.23;3.13;;;;;;;;;;5078502;28;20464;-71
2021/07/20 03:01:47;;;;;;;7.03;3.17;;;;;;;;;;5080087;28;20453;-71
2021/07/20 03:04:15;;;;;;;8.13;3.50;;;;;;;;;;5079768;28;20482;-71
2021/07/20 03:06:45;;;;;;;6.13;3.60;;;;;;;;;;5079972;28;20799;-71
2021/07/20 03:09:14;;;;;;;10.77;3.70;;;;;;;;;;5079921;28;20468;-71
2021/07/20 03:11:45;;;;;;;7.27;3.30;;;;;;;;;;5079606;28;20488;-71
2021/07/20 03:14:14;;;;;;;11.00;4.03;;;;;;;;;;5079830;28;20853;-71
2021/07/20 03:16:43;;;;;;;7.27;3.47;;;;;;;;;;5079433;28;20518;-71
2021/07/20 03:19:13;;;;;;;7.60;3.33;;;;;;;;;;5079286;28;20460;-70
2021/07/20 03:21:42;;;;;;;6.27;3.40;;;;;;;;;;5079750;28;20449;-70
2021/07/20 03:24:10;;;;;;;6.83;4.40;;;;;;;;;;5079577;28;20469;-70
2021/07/20 03:26:38;;;;;;;8.00;3.23;;;;;;;;;;5079340;28;20453;-71
2021/07/20 03:29:07;;;;;;;11.30;3.37;;;;;;;;;;5079448;28;20514;-70
2021/07/20 03:31:36;;;;;;;6.20;3.13;;;;;;;;;;5079056;28;20518;-70
2021/07/20 03:34:04;;;;;;;6.00;3.27;;;;;;;;;;5079225;28;20531;-72
2021/07/20 03:36:34;;;;;;;9.50;4.80;;;;;;;;;;5079880;28;20453;-72
2021/07/20 03:39:02;;;;;;;8.47;3.90;;;;;;;;;;5079550;28;20457;-72
2021/07/20 03:41:31;;;;;;;8.53;4.10;;;;;;;;;;5079246;28;20456;-71
2021/07/20 03:44:03;;;;;;;7.87;3.77;;;;;;;;;;5078753;28;20507;-71
2021/07/20 03:46:31;;;;;;;7.80;3.80;;;;;;;;;;5078881;28;20453;-71
2021/07/20 03:48:59;;;;;;;7.30;3.70;;;;;;;;;;5078842;28;20486;-71
2021/07/20 03:51:27;;;;;;;5.90;2.97;;;;;;;;;;5079410;28;20533;-71
2021/07/20 03:53:56;;;;;;;10.53;4.03;;;;;;;;;;5079086;28;20514;-72
2021/07/20 03:56:24;;;;;;;6.57;3.30;;;;;;;;;;5078432;28;20464;-71
2021/07/20 03:58:55;;;;;;;5.47;3.30;;;;;;;;;;5078887;28;20455;-71
2021/07/20 04:01:24;;;;;;;7.20;3.30;;;;;;;;;;5078792;28;20853;-72
2021/07/20 04:03:53;;;;;;;9.37;4.17;;;;;;;;;;5078429;28;20448;-72
2021/07/20 04:06:24;;;;;;;7.83;3.93;;;;;;;;;;5078573;28;20468;-72
2021/07/20 04:08:53;;;;;;;6.83;3.90;;;;;;;;;;5078561;28;20452;-71
2021/07/20 04:11:23;;;;;;;7.50;3.30;;;;;;;;;;5078330;28;20492;-72
2021/07/20 04:13:52;;;;;;;5.93;3.83;;;;;;;;;;5078388;28;20456;-71
2021/07/20 04:16:20;;;;;;;6.60;3.80;;;;;;;;;;5078836;28;20456;-71
2021/07/20 04:18:48;;;;;;;7.03;3.47;;;;;;;;;;5078944;28;20492;-71
2021/07/20 04:21:16;;;;;;;8.27;3.87;;;;;;;;;;5077696;28;20453;-72
2021/07/20 04:23:45;;;;;;;7.87;3.43;;;;;;;;;;5078017;28;20521;-72
2021/07/20 04:26:14;;;;;;;11.77;3.40;;;;;;;;;;5078440;28;20456;-71
2021/07/20 04:28:43;;;;;;;7.60;3.30;;;;;;;;;;5078242;28;20773;-72
2021/07/20 04:31:13;;;;;;;8.07;3.80;;;;;;;;;;5078148;28;20488;-72
2021/07/20 04:33:41;;;;;;;8.50;3.73;;;;;;;;;;5078219;28;20506;-71
2021/07/20 04:36:09;;;;;;;8.87;3.40;;;;;;;;;;5077618;28;20460;-71
2021/07/20 04:38:38;;;;;;;7.73;3.30;;;;;;;;;;5077775;28;20452;-71
2021/07/20 04:41:06;;;;;;;5.97;3.00;;;;;;;;;;5077078;28;20479;-70
2021/07/20 04:43:34;;;;;;;5.87;3.50;;;;;;;;;;5077852;28;20618;-70
2021/07/20 04:46:05;;;;;;;6.57;3.60;;;;;;;;;;5077325;28;20452;-70
2021/07/20 04:48:34;;;;;;;6.40;3.47;;;;;;;;;;5077304;28;20448;-70
2021/07/20 04:51:02;;;;;;;9.13;3.73;;;;;;;;;;5077377;28;20957;-70
2021/07/20 04:53:29;;;;;;;13.23;4.20;;;;;;;;;;5076890;28;20456;-70
2021/07/20 04:55:57;;;;;;;8.43;5.60;;;;;;;;;;5076728;28;20460;-70
2021/07/20 04:58:25;;;;;;;10.93;3.50;;;;;;;;;;5076575;28;20534;-69
2021/07/20 05:00:54;;;;;;;7.90;3.53;;;;;;;;;;5069845;28;20825;-71
2021/07/20 05:03:28;;;;;;;5.67;2.80;;;;;;;;;;5057446;28;20461;-71
2021/07/20 05:05:56;;;;;;;5.37;2.73;;;;;;;;;;5057482;28;20461;-70
2021/07/20 05:08:26;;;;;;;10.33;3.60;;;;;;;;;;5055987;28;20846;-71
2021/07/20 05:10:55;;;;;;;7.97;3.73;;;;;;;;;;5055893;28;20580;-71
2021/07/20 05:13:24;;;;;;;7.80;3.50;;;;;;;;;;5072758;28;20463;-71
2021/07/20 05:15:52;;;;;;;11.47;2.83;;;;;;;;;;5076947;28;20482;-70
2021/07/20 05:18:22;;;;;;;7.77;4.27;;;;;;;;;;5075691;28;20523;-71
2021/07/20 05:20:52;;;;;;;6.30;3.97;;;;;;;;;;5072612;28;20853;-70
2021/07/20 05:23:21;;;;;;;11.20;3.00;;;;;;;;;;5070247;28;20506;-71
2021/07/20 05:25:50;;;;;;;8.77;3.17;;;;;;;;;;5054602;28;20450;-71
2021/07/20 05:28:17;;;;;;;4.80;3.23;;;;;;;;;;5054490;28;20943;-71
2021/07/20 05:30:46;;;;;;;6.90;3.57;;;;;;;;;;5053817;28;20485;-70
2021/07/20 05:33:14;;;;;;;6.80;3.03;;;;;;;;;;5054474;28;20451;-73
2021/07/20 05:35:42;;;;;;;5.43;2.90;;;;;;;;;;5054393;28;20457;-72
2021/07/20 05:38:12;;;;;;;8.47;3.90;;;;;;;;;;5054008;28;20469;-72
2021/07/20 05:40:40;;;;;;;6.17;3.10;;;;;;;;;;5055369;28;20450;-72
2021/07/20 05:43:08;;;;;;;7.73;3.20;;;;;;;;;;5054035;28;20458;-71
2021/07/20 05:45:37;;;;;;;8.27;3.20;;;;;;;;;;5054215;28;20511;-71
2021/07/20 05:48:06;;;;;;;7.80;3.30;;;;;;;;;;5054521;28;20786;-72
2021/07/20 05:50:36;;;;;;;7.03;3.30;;;;;;;;;;5055540;28;20519;-72
2021/07/20 05:53:08;;;;;;;6.63;2.97;;;;;;;;;;5055354;28;20555;-72
2021/07/20 05:55:38;;;;;;;13.13;3.67;;;;;;;;;;5063536;28;20460;-72
2021/07/20 05:58:06;;;;;;;5.93;2.90;;;;;;;;;;5073652;28;20650;-72
2021/07/20 06:00:34;;;;;;;7.70;2.90;;;;;;;;;;5074980;28;20476;-72
2021/07/20 06:03:02;;;;;;;8.63;3.20;;;;;;;;;;5075608;28;20547;-72
2021/07/20 06:05:30;;;;;;;6.07;2.77;;;;;;;;;;5074815;28;20440;-72
2021/07/20 06:07:59;;;;;;;11.33;2.90;;;;;;;;;;5073916;28;20448;-72
2021/07/20 06:10:27;;;;;;;6.40;2.73;;;;;;;;;;5074368;28;20505;-71
2021/07/20 06:12:58;;;;;;;10.27;3.33;;;;;;;;;;5075383;28;20468;-71
2021/07/20 06:15:27;;;;;;;11.90;3.70;;;;;;;;;;5068195;28;20448;-71
2021/07/20 06:17:55;;;;;;;10.00;4.30;;;;;;;;;;5074334;28;20907;-71
2021/07/20 06:20:23;;;;;;;9.13;3.30;;;;;;;;;;5073806;28;20449;-71
2021/07/20 06:22:53;;;;;;;7.83;3.27;;;;;;;;;;5075329;28;20490;-71
2021/07/20 06:25:23;;;;;;;12.10;4.03;;;;;;;;;;5074517;28;20521;-72
2021/07/20 06:27:52;;;;;;;8.57;3.33;;;;;;;;;;5072883;28;20461;-72
2021/07/20 06:33:08;;;;;;;8.53;4.70;;;;;;;;;;5071018;28;21090;-73
2021/07/20 06:35:40;;;;;;;5.50;2.73;;;;;;;;;;5074586;28;20875;-72
2021/07/20 06:38:13;;;;;;;7.70;2.87;;;;;;;;;;5073973;28;20570;-72
2021/07/20 06:40:46;;;;;;;9.13;3.37;;;;;;;;;;5073446;28;20450;-71
2021/07/20 06:43:14;;;;;;;6.93;2.67;;;;;;;;;;5074171;28;20449;-71
2021/07/20 06:45:45;;;;;;;9.63;3.00;;;;;;;;;;5073808;28;20448;-72
2021/07/20 06:48:18;;;;;;;6.80;3.57;;;;;;;;;;5075360;28;20469;-71
2021/07/20 06:50:47;;;;;;;15.00;2.90;;;;;;;;;;5075387;28;20448;-72
2021/07/20 06:53:16;;;;;;;8.63;2.50;;;;;;;;;;5074194;28;20456;-72
2021/07/20 06:55:49;;;;;;;7.10;2.73;;;;;;;;;;5061525;28;20466;-72
2021/07/20 06:58:25;;;;;;;4.87;2.77;;;;;;;;;;5055725;28;20761;-71
2021/07/20 07:00:56;;;;;;;6.93;2.80;;;;;;;;;;5059357;28;20465;-73
2021/07/20 07:03:27;;;;;;;6.73;2.50;;;;;;;;;;5055009;28;20457;-71
2021/07/20 07:05:57;;;;;;;11.30;3.00;;;;;;;;;;5054932;28;20891;-72
2021/07/20 07:08:25;;;;;;;5.27;2.40;;;;;;;;;;5054599;28;20523;-71
2021/07/20 07:10:54;;;;;;;4.43;1.93;;;;;;;;;;5054181;28;20503;-71
2021/07/20 07:13:27;;;;;;;5.47;2.63;;;;;;;;;;5054702;28;20488;-70
2021/07/20 07:15:57;;;;;;;6.30;3.00;;;;;;;;;;5070240;28;20494;-71
2021/07/20 07:18:26;;;;;;;5.33;2.40;;;;;;;;;;5074684;28;20488;-71
2021/07/20 07:20:56;;;;;;;5.10;2.30;;;;;;;;;;5074908;28;20457;-71
2021/07/20 07:23:25;;;;;;;8.47;2.43;;;;;;;;;;5057928;28;20465;-71
2021/07/20 07:25:57;;;;;;;4.83;2.27;;;;;;;;;;5054573;28;20778;-71
2021/07/20 07:28:26;;;;;;;5.00;2.30;;;;;;;;;;5052465;28;20454;-70
2021/07/20 07:30:54;;;;;;;6.53;2.10;;;;;;;;;;5054292;28;20461;-70
2021/07/20 07:33:24;;;;;;;6.03;2.40;;;;;;;;;;5053846;28;20453;-70
2021/07/20 07:35:58;;;;;;;5.37;2.63;;;;;;;;;;5073356;28;20444;-71
2021/07/20 07:38:27;;;;;;;6.27;3.60;;;;;;;;;;5080499;28;20517;-71
2021/07/20 07:40:55;;;;;;;7.60;2.83;;;;;;;;;;5080274;28;20456;-70
2021/07/20 07:43:28;;;;;;;7.03;3.43;;;;;;;;;;5074603;28;20732;-71
2021/07/20 07:45:56;;;;;;;6.07;4.03;;;;;;;;;;5078232;28;20470;-71
2021/07/20 07:48:27;;;;;;;6.90;3.23;;;;;;;;;;5077789;28;20444;-70
2021/07/20 07:50:56;;;;;;;6.40;3.03;;;;;;;;;;5078122;28;20445;-70
2021/07/20 07:53:35;;;;;;;7.73;3.57;;;;;;;;;;5073519;28;20510;-72
2021/07/20 07:56:04;;;;;;;5.00;3.40;;;;;;;;;;5085657;28;20460;-70
2021/07/20 07:58:32;;;;;;;7.83;3.70;;;;;;;;;;5093462;28;20451;-70
2021/07/20 08:01:06;;;;;;;7.00;3.57;;;;;;;;;;5076607;28;20462;-70
2021/07/20 08:03:39;;;;;;;7.27;4.50;;;;;;;;;;5078894;28;20448;-70
2021/07/20 08:06:08;;;;;;;5.60;3.63;;;;;;;;;;5077490;28;20459;-69
2021/07/20 08:08:36;;;;;;;5.60;3.30;;;;;;;;;;5076717;28;20456;-70
2021/07/20 08:11:08;;;;;;;3.67;3.27;;;;;;;;;;5077507;28;20943;-70
2021/07/20 08:13:40;;;;;;;5.73;3.97;;;;;;;;;;5059672;28;20445;-71
2021/07/20 08:16:08;;;;;;;8.50;3.37;;;;;;;;;;5071842;28;20457;-70
2021/07/20 08:18:42;;;;;;;5.07;2.77;;;;;;;;;;5070114;28;20445;-70
2021/07/20 08:21:14;;;;;;;7.20;3.70;;;;;;;;;;5081294;28;20468;-71
2021/07/20 08:23:42;;;;;;;4.70;3.57;;;;;;;;;;5055459;28;20444;-70
2021/07/20 08:26:19;;;;;;;7.63;3.60;;;;;;;;;;5056023;28;20538;-70
2021/07/20 08:28:49;;;;;;;5.77;3.47;;;;;;;;;;5057301;28;20522;-70
2021/07/20 08:31:23;;;;;;;10.10;3.60;;;;;;;;;;5056906;28;21021;-70
2021/07/20 08:33:55;;;;;;;6.27;3.33;;;;;;;;;;5057646;28;21116;-70
2021/07/20 08:36:24;;;;;;;11.23;3.10;;;;;;;;;;5056457;28;20457;-71
2021/07/20 08:38:54;;;;;;;6.43;2.83;;;;;;;;;;5056089;28;20464;-70
2021/07/20 08:41:29;;;;;;;4.80;2.67;;;;;;;;;;5056908;28;20476;-70
2021/07/20 08:44:00;;;;;;;4.97;2.90;;;;;;;;;;5056076;28;20838;-71
2021/07/20 08:46:47;;;;;;;7.70;3.10;;;;;;;;;;5055695;28;20903;-70
2021/07/20 08:49:28;;;;;;;8.80;3.10;;;;;;;;;;5056497;28;20460;-70
2021/07/20 08:52:00;;;;;;;8.53;3.30;;;;;;;;;;5056858;28;20594;-70
2021/07/20 08:54:29;;;;;;;10.00;3.50;;;;;;;;;;5056831;28;20453;-70
2021/07/20 08:57:03;;;;;;;10.23;3.40;;;;;;;;;;5067469;28;20740;-71
2021/07/20 08:59:44;;;;;;;5.80;3.10;;;;;;;;;;5075926;28;20452;-71
2021/07/20 09:02:36;;;;;;;4.63;2.90;;;;;;;;;;5067829;28;20448;-70
2021/07/20 09:05:14;;;;;;;12.13;4.50;;;;;;;;;;5065858;28;20455;-70
2021/07/20 09:07:43;;;;;;;5.70;3.20;;;;;;;;;;5069340;28;20445;-69
2021/07/20 09:10:13;;;;;;;4.70;3.50;;;;;;;;;;5077683;28;20460;-70
2021/07/20 09:12:49;;;;;;;5.30;3.87;;;;;;;;;;5074939;28;20577;-69
2021/07/20 09:15:21;;;;;;;8.23;4.00;;;;;;;;;;5076133;28;20852;-70
2021/07/20 09:17:58;;;;;;;4.80;3.47;;;;;;;;;;5076094;28;20449;-70
2021/07/20 09:20:36;;;;;;;7.60;4.10;;;;;;;;;;5076041;28;20492;-71
2021/07/20 09:23:11;;;;;;;5.30;3.70;;;;;;;;;;5077312;28;20437;-70
2021/07/20 09:25:41;;;;;;;9.80;4.50;;;;;;;;;;5077228;28;20464;-71
2021/07/20 09:28:34;;;;;;;4.97;3.90;;;;;;;;;;5077773;28;20748;-72
2021/07/20 09:31:10;;;;;;;5.80;4.00;;;;;;;;;;5077996;28;20456;-71
2021/07/20 09:33:45;;;;;;;6.70;3.87;;;;;;;;;;5076354;28;20506;-70
2021/07/20 09:36:17;;;;;;;6.90;3.47;;;;;;;;;;5079153;28;20539;-70
2021/07/20 09:39:00;;;;;;;6.33;2.73;;;;;;;;;;5077562;28;20940;-70
2021/07/20 09:41:39;;;;;;;6.63;4.40;;;;;;;;;;5074965;28;20455;-71
2021/07/20 09:44:14;;;;;;;4.80;3.53;;;;;;;;;;5076284;28;20617;-71
2021/07/20 09:46:55;;;;;;;7.87;4.00;;;;;;;;;;5074422;28;20440;-72
2021/07/20 09:49:43;;;;;;;7.27;4.00;;;;;;;;;;5075863;28;20519;-72
2021/07/20 09:55:26;;;;;;;7.30;4.20;;;;;;;;;;5076712;28;20459;-72
2021/07/20 10:00:50;;;;;;;8.27;3.40;;;;;;;;;;5049627;28;20708;-72
2021/07/20 10:03:22;;;;;;;7.03;3.10;;;;;;;;;;5075043;28;20445;-73
2021/07/20 10:05:54;;;;;;;6.87;3.67;;;;;;;;;;5077240;28;20553;-72
2021/07/20 10:08:26;;;;;;;5.63;3.33;;;;;;;;;;5079426;28;20448;-73
2021/07/20 10:11:11;;;;;;;5.40;3.17;;;;;;;;;;5074247;28;20463;-73
2021/07/20 10:13:51;;;;;;;5.90;3.27;;;;;;;;;;5066023;28;20476;-73
2021/07/20 10:16:26;;;;;;;7.17;4.00;;;;;;;;;;5078381;28;20550;-72
2021/07/20 10:22:08;;;;;;;5.27;3.30;;;;;;;;;;5068021;28;20455;-72
2021/07/20 10:24:41;;;;;;;6.93;3.60;;;;;;;;;;5074558;28;20464;-71
2021/07/20 10:27:16;;;;;;;5.07;3.30;;;;;;;;;;5055245;28;20457;-71
2021/07/20 10:29:51;;;;;;;5.67;3.67;;;;;;;;;;5067025;28;20763;-70
2021/07/20 10:32:24;;;;;;;7.80;3.43;;;;;;;;;;5071838;28;20484;-71
2021/07/20 10:34:56;;;;;;;4.90;3.90;;;;;;;;;;5073794;28;20449;-71
2021/07/20 10:37:28;;;;;;;5.83;3.57;;;;;;;;;;5073191;28;20540;-70
2021/07/20 10:40:02;;;;;;;5.40;3.87;;;;;;;;;;5076906;28;20457;-71
2021/07/20 10:42:33;;;;;;;8.63;3.90;;;;;;;;;;5086999;28;20512;-71
2021/07/20 10:45:13;;;;;;;5.63;3.30;;;;;;;;;;5095525;28;20470;-72
2021/07/20 10:47:48;;;;;;;4.37;3.17;;;;;;;;;;5096160;28;20439;-71
2021/07/20 10:50:18;;;;;;;6.00;4.00;;;;;;;;;;5096063;28;20529;-73
2021/07/20 10:52:54;;;;;;;4.90;2.97;;;;;;;;;;5095366;28;20554;-71
2021/07/20 10:55:29;;;;;;;6.40;4.50;;;;;;;;;;5067890;28;20468;-72
2021/07/20 10:58:03;;;;;;;4.90;3.57;;;;;;;;;;5064412;28;20448;-72
2021/07/20 11:00:42;;;;;;;9.90;4.80;;;;;;;;;;5067590;28;20965;-73
2021/07/20 11:03:16;;;;;;;6.97;3.40;;;;;;;;;;5075041;28;20783;-72
2021/07/20 11:05:51;;;;;;;11.53;4.10;;;;;;;;;;5075820;28;20464;-73
2021/07/20 11:08:23;;;;;;;5.93;3.90;;;;;;;;;;5068903;28;20464;-73
2021/07/20 11:11:05;;;;;;;9.33;4.17;;;;;;;;;;5056140;28;20576;-73
2021/07/20 11:13:40;;;;;;;4.93;3.50;;;;;;;;;;5059012;28;20599;-72
2021/07/20 11:16:10;;;;;;;9.43;3.80;;;;;;;;;;5072300;28;20460;-71
2021/07/20 11:21:31;;;;;;;7.57;4.80;;;;;;;;;;5076889;28;20483;-70
2021/07/20 11:24:02;;;;;;;9.60;5.87;;;;;;;;;;5078671;28;20434;-72
2021/07/20 11:26:32;;;;;;;6.53;4.03;;;;;;;;;;5079306;28;20901;-73
2021/07/20 11:29:02;;;;;;;5.93;3.70;;;;;;;;;;5078187;28;20444;-73
2021/07/20 11:31:33;;;;;;;5.70;3.60;;;;;;;;;;5080569;28;20497;-72
2021/07/20 11:34:03;;;;;;;7.20;4.10;;;;;;;;;;5072545;28;20486;-73
2021/07/20 11:36:38;;;;;;;6.77;3.70;;;;;;;;;;5075871;28;20452;-73
2021/07/20 11:39:06;;;;;;;7.30;3.43;;;;;;;;;;5072555;28;20456;-73
2021/07/20 11:41:40;;;;;;;5.97;3.83;;;;;;;;;;5075125;28;20555;-73
2021/07/20 11:44:31;;;;;;;5.50;3.77;;;;;;;;;;5077876;28;20467;-72
2021/07/20 11:47:03;;;;;;;6.07;3.20;;;;;;;;;;5077398;28;20556;-72
2021/07/20 11:49:38;;;;;;;5.37;3.60;;;;;;;;;;5074598;28;20463;-71
2021/07/20 11:52:11;;;;;;;5.10;3.37;;;;;;;;;;5067921;28;20474;-72
2021/07/20 11:54:43;;;;;;;6.87;4.47;;;;;;;;;;5074751;28;20540;-73
2021/07/20 11:57:31;;;;;;;5.17;3.43;;;;;;;;;;5069580;28;20451;-72
2021/07/20 12:03:10;;;;;;;5.80;2.93;;;;;;;;;;5063258;28;20907;-74
2021/07/20 12:05:57;;;;;;;6.23;4.20;;;;;;;;;;5072002;28;20467;-74
2021/07/20 12:08:27;;;;;;;5.30;4.00;;;;;;;;;;5063940;28;20467;-72
2021/07/20 12:10:59;;;;;;;7.37;4.43;;;;;;;;;;5077826;28;20551;-74
2021/07/20 12:13:29;;;;;;;7.23;3.77;;;;;;;;;;5070733;28;20759;-73
2021/07/20 12:15:57;;;;;;;27.57;15.77;;;;;;;;;;5076443;28;20465;-72
2021/07/20 12:21:17;;;;;;;6.83;4.37;;;;;;;;;;5072784;28;20808;-73
2021/07/20 12:23:51;;;;;;;7.10;4.33;;;;;;;;;;5071514;28;20445;-73
2021/07/20 12:26:20;;;;;;;5.53;3.73;;;;;;;;;;5078087;28;21039;-73
2021/07/20 12:28:51;;;;;;;7.20;4.63;;;;;;;;;;5076279;28;20456;-73
2021/07/20 12:31:21;;;;;;;13.27;3.37;;;;;;;;;;5056187;28;20449;-73
2021/07/20 12:33:53;;;;;;;5.87;3.73;;;;;;;;;;5058283;28;21101;-73
2021/07/20 12:36:34;;;;;;;7.67;4.03;;;;;;;;;;5057920;28;20461;-72
2021/07/20 12:39:15;;;;;;;7.50;3.90;;;;;;;;;;5059433;28;20737;-72
2021/07/20 12:41:44;;;;;;;6.30;4.37;;;;;;;;;;5057999;28;20515;-72
2021/07/20 12:44:24;;;;;;;4.70;3.70;;;;;;;;;;5059234;28;20551;-72
2021/07/20 12:47:08;;;;;;;8.20;3.73;;;;;;;;;;5058265;28;20464;-72
2021/07/20 12:49:54;;;;;;;5.77;4.13;;;;;;;;;;5057090;28;20450;-74
2021/07/20 12:52:29;;;;;;;7.90;5.30;;;;;;;;;;5057682;28;20996;-73
2021/07/20 12:55:00;;;;;;;7.57;4.60;;;;;;;;;;5056830;28;20449;-72
2021/07/20 12:57:35;;;;;;;6.00;4.13;;;;;;;;;;5055555;28;20545;-73
2021/07/20 13:00:09;;;;;;;10.30;5.00;;;;;;;;;;5056039;28;20461;-73
2021/07/20 13:02:55;;;;;;;5.87;3.87;;;;;;;;;;5057025;28;20858;-74
2021/07/20 13:05:26;;;;;;;5.57;3.73;;;;;;;;;;5072663;28;20464;-72
2021/07/20 13:07:57;;;;;;;7.13;3.93;;;;;;;;;;5071620;28;20449;-73
2021/07/20 13:10:28;;;;;;;7.37;4.07;;;;;;;;;;5067036;28;20457;-72
2021/07/20 13:12:57;;;;;;;7.00;4.00;;;;;;;;;;5057867;28;20507;-73
2021/07/20 13:15:27;;;;;;;5.80;3.63;;;;;;;;;;5076585;28;20539;-73
2021/07/20 13:17:56;;;;;;;5.80;3.60;;;;;;;;;;5076646;28;20498;-73
2021/07/20 13:20:29;;;;;;;8.90;4.70;;;;;;;;;;5072699;28;20468;-74
2021/07/20 13:22:59;;;;;;;6.33;4.90;;;;;;;;;;5075685;28;21010;-73
2021/07/20 13:25:28;;;;;;;9.97;4.47;;;;;;;;;;5077035;28;20471;-72
2021/07/20 13:27:59;;;;;;;5.10;4.20;;;;;;;;;;5075504;28;20456;-71
2021/07/20 13:30:33;;;;;;;6.60;4.73;;;;;;;;;;5076298;28;20460;-73
2021/07/20 13:33:09;;;;;;;6.60;4.73;;;;;;;;;;5077747;28;20835;-73
2021/07/20 13:35:47;;;;;;;6.70;4.20;;;;;;;;;;5072540;28;20457;-73
2021/07/20 13:38:30;;;;;;;5.43;4.07;;;;;;;;;;5062574;28;20803;-73
2021/07/20 13:41:02;;;;;;;6.73;4.40;;;;;;;;;;5059114;28;20456;-73
2021/07/20 13:43:46;;;;;;;7.60;4.43;;;;;;;;;;5075121;28;20749;-73
2021/07/20 13:46:23;;;;;;;6.80;4.23;;;;;;;;;;5059463;28;20441;-72
2021/07/20 13:48:53;;;;;;;7.23;4.10;;;;;;;;;;5072870;28;20466;-72
2021/07/20 13:51:30;;;;;;;6.60;4.30;;;;;;;;;;5068178;28;20465;-72
2021/07/20 13:54:00;;;;;;;4.80;3.93;;;;;;;;;;5076028;28;20486;-72
2021/07/20 13:56:31;;;;;;;6.10;4.37;;;;;;;;;;5073134;28;20539;-72
2021/07/20 13:59:02;;;;;;;5.20;3.83;;;;;;;;;;5066928;28;21124;-72
2021/07/20 14:01:45;;;;;;;9.53;4.23;;;;;;;;;;5066972;28;20457;-73
2021/07/20 14:04:20;;;;;;;5.60;3.60;;;;;;;;;;5069060;28;20451;-74
2021/07/20 14:06:51;;;;;;;5.63;4.03;;;;;;;;;;5075015;28;20472;-72
2021/07/20 14:09:19;;;;;;;7.33;4.33;;;;;;;;;;5070762;28;20457;-72
2021/07/20 14:11:47;;;;;;;5.20;3.83;;;;;;;;;;5080273;28;20448;-73
2021/07/20 14:17:18;;;;;;;6.60;4.03;;;;;;;;;;5071900;28;20425;-72
2021/07/20 14:19:54;;;;;;;5.40;3.17;;;;;;;;;;5075527;28;20437;-73
2021/07/20 14:22:25;;;;;;;9.03;4.60;;;;;;;;;;5074383;28;20517;-73
2021/07/20 14:24:56;;;;;;;8.33;3.77;;;;;;;;;;5074273;28;20445;-73
2021/07/20 14:27:26;;;;;;;6.03;3.50;;;;;;;;;;5075284;28;20469;-73
2021/07/20 14:29:54;;;;;;;6.70;3.60;;;;;;;;;;5074999;28;20455;-73
2021/07/20 14:32:24;;;;;;;11.70;5.30;;;;;;;;;;5077224;28;20553;-72
2021/07/20 14:34:57;;;;;;;6.37;3.50;;;;;;;;;;5078292;28;20547;-72
2021/07/20 14:37:37;;;;;;;8.60;4.97;;;;;;;;;;5065606;28;20495;-72
2021/07/20 14:43:06;;;;;;;6.90;3.53;;;;;;;;;;5041307;28;20864;-73
2021/07/20 14:45:37;;;;;;;6.00;4.30;;;;;;;;;;5061496;28;20457;-74
2021/07/20 14:48:10;;;;;;;7.40;3.73;;;;;;;;;;5074967;28;20551;-73
2021/07/20 14:50:43;;;;;;;5.50;3.80;;;;;;;;;;5074776;28;20525;-73
2021/07/20 14:53:13;;;;;;;6.73;4.20;;;;;;;;;;5074586;28;20455;-73
2021/07/20 14:55:42;;;;;;;6.67;4.10;;;;;;;;;;5077755;28;20476;-71
2021/07/20 14:58:22;;;;;;;;;;;;;;;;;;;;;
2021/07/20 15:01:02;;;;;;;6.13;3.13;;;;;;;;;;5074069;28;20444;-71
2021/07/20 15:03:35;;;;;;;4.83;3.80;;;;;;;;;;5080073;28;20539;-71
2021/07/20 15:06:06;;;;;;;5.00;3.57;;;;;;;;;;5077830;28;20501;-71
2021/07/20 15:08:34;;;;;;;6.80;4.10;;;;;;;;;;5093353;28;20867;-72
2021/07/20 15:11:14;;;;;;;5.00;3.10;;;;;;;;;;5096858;28;20852;-71
2021/07/20 15:13:45;;;;;;;9.17;3.17;;;;;;;;;;5078015;28;20483;-72
2021/07/20 15:16:13;;;;;;;6.47;3.40;;;;;;;;;;5078383;28;20484;-71
2021/07/20 15:19:10;;;;;;;5.00;3.23;;;;;;;;;;5078676;28;20550;-72
2021/07/20 15:21:42;;;;;;;12.37;3.20;;;;;;;;;;5078279;28;20454;-70
2021/07/20 15:24:12;;;;;;;5.30;3.50;;;;;;;;;;5078634;28;20482;-72
2021/07/20 15:26:43;;;;;;;6.33;3.60;;;;;;;;;;5078898;28;20738;-70
2021/07/20 15:29:11;;;;;;;6.50;3.57;;;;;;;;;;5079174;28;20440;-71
2021/07/20 15:31:40;;;;;;;8.13;3.93;;;;;;;;;;5078200;28;20485;-72
2021/07/20 15:34:11;;;;;;;5.87;4.50;;;;;;;;;;5077328;28;20485;-72
2021/07/20 15:36:46;;;;;;;6.13;3.33;;;;;;;;;;5077821;28;20526;-72
2021/07/20 15:39:17;;;;;;;10.60;3.80;;;;;;;;;;5077497;28;20922;-74